sensor_id;sensor_type;location;lat;lon;timestamp;P1;durP1;ratioP1;P2;durP2;ratioP2
61572;SDS011;47465;43.094;12.434;2023-07-20T00:02:19;33.92;;;14.60;;
61572;SDS011;47465;43.094;12.434;2023-07-20T00:04:45;41.15;;;15.07;;
61572;SDS011;47465;43.094;12.434;2023-07-20T00:07:11;37.65;;;14.80;;
61572;SDS011;47465;43.094;12.434;2023-07-20T00:09:37;37.03;;;15.65;;
61572;SDS011;47465;43.094;12.434;2023-07-20T00:12:03;39.65;;;15.60;;
61572;SDS011;47465;43.094;12.434;2023-07-20T00:14:29;39.17;;;17.10;;
61572;SDS011;47465;43.094;12.434;2023-07-20T00:16:58;42.90;;;15.98;;
61572;SDS011;47465;43.094;12.434;2023-07-20T00:19:24;38.93;;;15.30;;
61572;SDS011;47465;43.094;12.434;2023-07-20T00:21:51;44.20;;;16.85;;
61572;SDS011;47465;43.094;12.434;2023-07-20T00:24:17;44.53;;;17.27;;
61572;SDS011;47465;43.094;12.434;2023-07-20T00:26:43;36.50;;;16.25;;
61572;SDS011;47465;43.094;12.434;2023-07-20T00:29:09;39.20;;;15.25;;
61572;SDS011;47465;43.094;12.434;2023-07-20T00:31:35;44.90;;;17.13;;
61572;SDS011;47465;43.094;12.434;2023-07-20T00:34:03;46.88;;;17.52;;
61572;SDS011;47465;43.094;12.434;2023-07-20T00:36:30;39.10;;;16.40;;
61572;SDS011;47465;43.094;12.434;2023-07-20T00:38:56;43.60;;;17.13;;
61572;SDS011;47465;43.094;12.434;2023-07-20T00:41:22;43.05;;;16.60;;
61572;SDS011;47465;43.094;12.434;2023-07-20T00:43:48;43.05;;;16.95;;
61572;SDS011;47465;43.094;12.434;2023-07-20T00:46:14;46.97;;;18.35;;
61572;SDS011;47465;43.094;12.434;2023-07-20T00:48:40;44.28;;;17.35;;
61572;SDS011;47465;43.094;12.434;2023-07-20T00:51:08;44.75;;;18.58;;
61572;SDS011;47465;43.094;12.434;2023-07-20T00:53:38;54.80;;;19.60;;
61572;SDS011;47465;43.094;12.434;2023-07-20T00:56:04;50.17;;;19.33;;
61572;SDS011;47465;43.094;12.434;2023-07-20T00:58:34;45.05;;;18.83;;
61572;SDS011;47465;43.094;12.434;2023-07-20T01:03:44;49.03;;;18.17;;
61572;SDS011;47465;43.094;12.434;2023-07-20T01:06:16;50.55;;;19.15;;
61572;SDS011;47465;43.094;12.434;2023-07-20T01:08:56;43.25;;;19.70;;
61572;SDS011;47465;43.094;12.434;2023-07-20T01:11:29;46.97;;;19.20;;
61572;SDS011;47465;43.094;12.434;2023-07-20T01:14:01;48.75;;;19.48;;
61572;SDS011;47465;43.094;12.434;2023-07-20T01:16:28;66.45;;;21.17;;
61572;SDS011;47465;43.094;12.434;2023-07-20T01:18:54;48.53;;;19.83;;
61572;SDS011;47465;43.094;12.434;2023-07-20T01:21:24;50.35;;;19.60;;
61572;SDS011;47465;43.094;12.434;2023-07-20T01:24:14;57.78;;;20.33;;
61572;SDS011;47465;43.094;12.434;2023-07-20T01:30:00;58.50;;;20.55;;
61572;SDS011;47465;43.094;12.434;2023-07-20T01:32:39;51.75;;;20.58;;
61572;SDS011;47465;43.094;12.434;2023-07-20T01:35:07;50.58;;;19.70;;
61572;SDS011;47465;43.094;12.434;2023-07-20T01:37:39;49.38;;;18.67;;
61572;SDS011;47465;43.094;12.434;2023-07-20T01:40:07;57.40;;;20.38;;
61572;SDS011;47465;43.094;12.434;2023-07-20T01:42:35;55.60;;;20.63;;
61572;SDS011;47465;43.094;12.434;2023-07-20T01:45:01;58.42;;;19.10;;
61572;SDS011;47465;43.094;12.434;2023-07-20T01:47:33;53.97;;;19.58;;
61572;SDS011;47465;43.094;12.434;2023-07-20T01:50:03;56.88;;;19.67;;
61572;SDS011;47465;43.094;12.434;2023-07-20T01:52:30;49.92;;;19.52;;
61572;SDS011;47465;43.094;12.434;2023-07-20T01:54:55;50.03;;;18.58;;
61572;SDS011;47465;43.094;12.434;2023-07-20T01:57:22;50.42;;;20.08;;
61572;SDS011;47465;43.094;12.434;2023-07-20T01:59:48;53.50;;;22.42;;
61572;SDS011;47465;43.094;12.434;2023-07-20T02:02:14;59.65;;;21.15;;
61572;SDS011;47465;43.094;12.434;2023-07-20T02:04:40;50.90;;;19.65;;
61572;SDS011;47465;43.094;12.434;2023-07-20T02:07:07;54.20;;;20.15;;
61572;SDS011;47465;43.094;12.434;2023-07-20T02:09:33;43.45;;;19.17;;
61572;SDS011;47465;43.094;12.434;2023-07-20T02:11:59;60.38;;;21.52;;
61572;SDS011;47465;43.094;12.434;2023-07-20T02:14:25;51.42;;;19.30;;
61572;SDS011;47465;43.094;12.434;2023-07-20T02:16:51;59.83;;;19.05;;
61572;SDS011;47465;43.094;12.434;2023-07-20T02:19:17;58.67;;;19.10;;
61572;SDS011;47465;43.094;12.434;2023-07-20T02:21:44;53.88;;;19.30;;
61572;SDS011;47465;43.094;12.434;2023-07-20T02:24:11;59.70;;;18.55;;
61572;SDS011;47465;43.094;12.434;2023-07-20T02:26:38;49.20;;;18.60;;
61572;SDS011;47465;43.094;12.434;2023-07-20T02:29:04;48.80;;;19.10;;
61572;SDS011;47465;43.094;12.434;2023-07-20T02:31:30;48.55;;;17.85;;
61572;SDS011;47465;43.094;12.434;2023-07-20T02:33:56;43.90;;;18.75;;
61572;SDS011;47465;43.094;12.434;2023-07-20T02:36:21;43.85;;;18.90;;
61572;SDS011;47465;43.094;12.434;2023-07-20T02:38:47;51.42;;;19.00;;
61572;SDS011;47465;43.094;12.434;2023-07-20T02:41:15;55.20;;;19.27;;
61572;SDS011;47465;43.094;12.434;2023-07-20T02:43:40;58.35;;;18.73;;
61572;SDS011;47465;43.094;12.434;2023-07-20T02:46:06;45.17;;;18.25;;
61572;SDS011;47465;43.094;12.434;2023-07-20T02:48:32;57.70;;;21.70;;
61572;SDS011;47465;43.094;12.434;2023-07-20T02:50:58;47.90;;;18.08;;
61572;SDS011;47465;43.094;12.434;2023-07-20T02:53:24;48.38;;;18.33;;
61572;SDS011;47465;43.094;12.434;2023-07-20T02:55:50;46.30;;;17.85;;
61572;SDS011;47465;43.094;12.434;2023-07-20T02:58:17;48.58;;;18.15;;
61572;SDS011;47465;43.094;12.434;2023-07-20T03:00:43;57.03;;;19.88;;
61572;SDS011;47465;43.094;12.434;2023-07-20T03:03:10;38.25;;;17.73;;
61572;SDS011;47465;43.094;12.434;2023-07-20T03:05:36;43.45;;;19.40;;
61572;SDS011;47465;43.094;12.434;2023-07-20T03:08:05;43.35;;;17.88;;
61572;SDS011;47465;43.094;12.434;2023-07-20T03:10:31;54.25;;;18.40;;
61572;SDS011;47465;43.094;12.434;2023-07-20T03:12:57;48.05;;;17.08;;
61572;SDS011;47465;43.094;12.434;2023-07-20T03:15:24;43.60;;;17.10;;
61572;SDS011;47465;43.094;12.434;2023-07-20T03:17:50;46.67;;;16.75;;
61572;SDS011;47465;43.094;12.434;2023-07-20T03:20:16;44.83;;;16.92;;
61572;SDS011;47465;43.094;12.434;2023-07-20T03:22:42;46.83;;;17.23;;
61572;SDS011;47465;43.094;12.434;2023-07-20T03:25:08;34.80;;;16.30;;
61572;SDS011;47465;43.094;12.434;2023-07-20T03:27:34;44.45;;;17.83;;
61572;SDS011;47465;43.094;12.434;2023-07-20T03:30:00;42.85;;;17.10;;
61572;SDS011;47465;43.094;12.434;2023-07-20T03:32:27;42.47;;;17.77;;
61572;SDS011;47465;43.094;12.434;2023-07-20T03:34:53;49.20;;;18.25;;
61572;SDS011;47465;43.094;12.434;2023-07-20T03:37:19;44.92;;;17.92;;
61572;SDS011;47465;43.094;12.434;2023-07-20T03:39:45;37.42;;;16.52;;
61572;SDS011;47465;43.094;12.434;2023-07-20T03:42:11;47.10;;;17.55;;
61572;SDS011;47465;43.094;12.434;2023-07-20T03:44:37;42.88;;;17.75;;
61572;SDS011;47465;43.094;12.434;2023-07-20T03:47:04;48.25;;;17.23;;
61572;SDS011;47465;43.094;12.434;2023-07-20T03:49:32;43.60;;;17.02;;
61572;SDS011;47465;43.094;12.434;2023-07-20T03:51:57;40.33;;;16.38;;
61572;SDS011;47465;43.094;12.434;2023-07-20T03:54:23;47.97;;;17.27;;
61572;SDS011;47465;43.094;12.434;2023-07-20T03:56:49;40.55;;;16.75;;
61572;SDS011;47465;43.094;12.434;2023-07-20T03:59:15;48.15;;;17.15;;
61572;SDS011;47465;43.094;12.434;2023-07-20T04:01:41;45.00;;;17.13;;
61572;SDS011;47465;43.094;12.434;2023-07-20T04:04:07;44.85;;;18.77;;
61572;SDS011;47465;43.094;12.434;2023-07-20T04:06:34;48.35;;;18.00;;
61572;SDS011;47465;43.094;12.434;2023-07-20T04:09:00;43.47;;;17.35;;
61572;SDS011;47465;43.094;12.434;2023-07-20T04:11:26;44.05;;;17.63;;
61572;SDS011;47465;43.094;12.434;2023-07-20T04:13:52;43.20;;;18.30;;
61572;SDS011;47465;43.094;12.434;2023-07-20T04:16:18;43.05;;;17.17;;
61572;SDS011;47465;43.094;12.434;2023-07-20T04:18:45;41.70;;;17.25;;
61572;SDS011;47465;43.094;12.434;2023-07-20T04:21:11;42.92;;;18.40;;
61572;SDS011;47465;43.094;12.434;2023-07-20T04:23:38;52.42;;;18.38;;
61572;SDS011;47465;43.094;12.434;2023-07-20T04:26:04;43.97;;;17.50;;
61572;SDS011;47465;43.094;12.434;2023-07-20T04:28:32;38.33;;;17.05;;
61572;SDS011;47465;43.094;12.434;2023-07-20T04:31:09;37.88;;;17.75;;
61572;SDS011;47465;43.094;12.434;2023-07-20T04:33:35;45.08;;;17.30;;
61572;SDS011;47465;43.094;12.434;2023-07-20T04:36:01;41.58;;;16.83;;
61572;SDS011;47465;43.094;12.434;2023-07-20T04:38:27;40.22;;;16.50;;
61572;SDS011;47465;43.094;12.434;2023-07-20T04:40:54;38.22;;;16.40;;
61572;SDS011;47465;43.094;12.434;2023-07-20T04:43:20;38.67;;;16.38;;
61572;SDS011;47465;43.094;12.434;2023-07-20T04:45:46;39.35;;;17.52;;
61572;SDS011;47465;43.094;12.434;2023-07-20T04:48:13;43.22;;;19.30;;
61572;SDS011;47465;43.094;12.434;2023-07-20T04:50:40;37.53;;;16.83;;
61572;SDS011;47465;43.094;12.434;2023-07-20T04:53:06;36.03;;;17.40;;
61572;SDS011;47465;43.094;12.434;2023-07-20T04:55:32;32.85;;;16.10;;
61572;SDS011;47465;43.094;12.434;2023-07-20T04:58:01;34.65;;;15.50;;
61572;SDS011;47465;43.094;12.434;2023-07-20T05:00:27;41.53;;;16.60;;
61572;SDS011;47465;43.094;12.434;2023-07-20T05:02:53;40.50;;;15.57;;
61572;SDS011;47465;43.094;12.434;2023-07-20T05:05:19;35.20;;;16.00;;
61572;SDS011;47465;43.094;12.434;2023-07-20T05:07:45;33.58;;;16.92;;
61572;SDS011;47465;43.094;12.434;2023-07-20T05:10:11;31.50;;;15.25;;
61572;SDS011;47465;43.094;12.434;2023-07-20T05:12:37;35.33;;;16.42;;
61572;SDS011;47465;43.094;12.434;2023-07-20T05:15:05;31.13;;;15.75;;
61572;SDS011;47465;43.094;12.434;2023-07-20T05:17:31;32.83;;;15.65;;
61572;SDS011;47465;43.094;12.434;2023-07-20T05:19:57;34.83;;;14.55;;
61572;SDS011;47465;43.094;12.434;2023-07-20T05:22:23;35.45;;;14.88;;
61572;SDS011;47465;43.094;12.434;2023-07-20T05:24:49;38.67;;;14.85;;
61572;SDS011;47465;43.094;12.434;2023-07-20T05:27:16;33.92;;;15.15;;
61572;SDS011;47465;43.094;12.434;2023-07-20T05:29:43;40.05;;;14.90;;
61572;SDS011;47465;43.094;12.434;2023-07-20T05:32:10;33.35;;;14.50;;
61572;SDS011;47465;43.094;12.434;2023-07-20T05:34:36;42.25;;;15.45;;
61572;SDS011;47465;43.094;12.434;2023-07-20T05:37:02;34.35;;;14.15;;
61572;SDS011;47465;43.094;12.434;2023-07-20T05:39:28;33.00;;;14.02;;
61572;SDS011;47465;43.094;12.434;2023-07-20T05:41:54;40.70;;;14.60;;
61572;SDS011;47465;43.094;12.434;2023-07-20T05:44:20;35.08;;;14.55;;
61572;SDS011;47465;43.094;12.434;2023-07-20T05:46:46;31.67;;;14.00;;
61572;SDS011;47465;43.094;12.434;2023-07-20T05:49:13;39.42;;;14.10;;
61572;SDS011;47465;43.094;12.434;2023-07-20T05:51:39;26.75;;;13.95;;
61572;SDS011;47465;43.094;12.434;2023-07-20T05:54:05;27.35;;;13.30;;
61572;SDS011;47465;43.094;12.434;2023-07-20T05:56:31;39.63;;;13.85;;
61572;SDS011;47465;43.094;12.434;2023-07-20T05:58:57;30.70;;;13.57;;
61572;SDS011;47465;43.094;12.434;2023-07-20T06:01:23;29.48;;;12.65;;
61572;SDS011;47465;43.094;12.434;2023-07-20T06:03:52;38.47;;;13.55;;
61572;SDS011;47465;43.094;12.434;2023-07-20T06:06:19;24.42;;;12.57;;
61572;SDS011;47465;43.094;12.434;2023-07-20T06:08:45;33.15;;;12.52;;
61572;SDS011;47465;43.094;12.434;2023-07-20T06:11:11;34.67;;;13.85;;
61572;SDS011;47465;43.094;12.434;2023-07-20T06:13:37;39.17;;;13.63;;
61572;SDS011;47465;43.094;12.434;2023-07-20T06:16:03;30.25;;;13.05;;
61572;SDS011;47465;43.094;12.434;2023-07-20T06:18:29;40.53;;;13.45;;
61572;SDS011;47465;43.094;12.434;2023-07-20T06:20:56;28.20;;;11.98;;
61572;SDS011;47465;43.094;12.434;2023-07-20T06:23:23;33.05;;;13.73;;
61572;SDS011;47465;43.094;12.434;2023-07-20T06:25:49;31.37;;;13.53;;
61572;SDS011;47465;43.094;12.434;2023-07-20T06:28:15;29.70;;;12.55;;
61572;SDS011;47465;43.094;12.434;2023-07-20T06:30:41;26.52;;;12.68;;
61572;SDS011;47465;43.094;12.434;2023-07-20T06:33:07;27.00;;;12.27;;
61572;SDS011;47465;43.094;12.434;2023-07-20T06:35:33;26.65;;;11.98;;
61572;SDS011;47465;43.094;12.434;2023-07-20T06:38:01;24.52;;;12.43;;
61572;SDS011;47465;43.094;12.434;2023-07-20T06:40:30;24.08;;;11.25;;
61572;SDS011;47465;43.094;12.434;2023-07-20T06:42:56;23.80;;;11.60;;
61572;SDS011;47465;43.094;12.434;2023-07-20T06:45:22;31.83;;;11.80;;
61572;SDS011;47465;43.094;12.434;2023-07-20T06:47:49;29.83;;;12.27;;
61572;SDS011;47465;43.094;12.434;2023-07-20T06:50:15;25.77;;;11.93;;
61572;SDS011;47465;43.094;12.434;2023-07-20T06:52:40;26.23;;;11.50;;
61572;SDS011;47465;43.094;12.434;2023-07-20T06:55:07;24.30;;;11.60;;
61572;SDS011;47465;43.094;12.434;2023-07-20T06:57:35;24.98;;;10.60;;
61572;SDS011;47465;43.094;12.434;2023-07-20T07:00:01;26.13;;;10.20;;
61572;SDS011;47465;43.094;12.434;2023-07-20T07:02:29;22.30;;;10.50;;
61572;SDS011;47465;43.094;12.434;2023-07-20T07:04:55;27.50;;;11.20;;
61572;SDS011;47465;43.094;12.434;2023-07-20T07:07:21;23.45;;;10.57;;
61572;SDS011;47465;43.094;12.434;2023-07-20T07:09:47;28.05;;;10.93;;
61572;SDS011;47465;43.094;12.434;2023-07-20T07:12:13;25.00;;;10.70;;
61572;SDS011;47465;43.094;12.434;2023-07-20T07:14:41;22.08;;;10.77;;
61572;SDS011;47465;43.094;12.434;2023-07-20T07:17:06;24.63;;;10.60;;
61572;SDS011;47465;43.094;12.434;2023-07-20T07:19:33;22.85;;;9.93;;
61572;SDS011;47465;43.094;12.434;2023-07-20T07:21:58;27.85;;;10.27;;
61572;SDS011;47465;43.094;12.434;2023-07-20T07:24:24;28.98;;;10.40;;
61572;SDS011;47465;43.094;12.434;2023-07-20T07:26:50;23.25;;;9.32;;
61572;SDS011;47465;43.094;12.434;2023-07-20T07:29:16;24.88;;;9.40;;
61572;SDS011;47465;43.094;12.434;2023-07-20T07:31:45;31.02;;;11.05;;
61572;SDS011;47465;43.094;12.434;2023-07-20T07:34:11;27.43;;;10.17;;
61572;SDS011;47465;43.094;12.434;2023-07-20T07:36:37;21.33;;;10.02;;
61572;SDS011;47465;43.094;12.434;2023-07-20T07:39:03;23.42;;;9.63;;
61572;SDS011;47465;43.094;12.434;2023-07-20T07:41:29;27.05;;;9.80;;
61572;SDS011;47465;43.094;12.434;2023-07-20T07:43:55;27.60;;;9.73;;
61572;SDS011;47465;43.094;12.434;2023-07-20T07:46:21;23.40;;;9.65;;
61572;SDS011;47465;43.094;12.434;2023-07-20T07:48:48;32.63;;;10.50;;
61572;SDS011;47465;43.094;12.434;2023-07-20T07:51:14;27.95;;;10.02;;
61572;SDS011;47465;43.094;12.434;2023-07-20T07:53:40;23.77;;;9.02;;
61572;SDS011;47465;43.094;12.434;2023-07-20T07:56:07;26.55;;;9.95;;
61572;SDS011;47465;43.094;12.434;2023-07-20T07:58:33;19.55;;;9.57;;
61572;SDS011;47465;43.094;12.434;2023-07-20T08:01:00;25.45;;;9.80;;
61572;SDS011;47465;43.094;12.434;2023-07-20T08:03:26;25.35;;;10.05;;
61572;SDS011;47465;43.094;12.434;2023-07-20T08:05:54;24.92;;;9.13;;
61572;SDS011;47465;43.094;12.434;2023-07-20T08:08:21;20.00;;;9.38;;
61572;SDS011;47465;43.094;12.434;2023-07-20T08:10:47;18.42;;;8.35;;
61572;SDS011;47465;43.094;12.434;2023-07-20T08:13:13;19.92;;;8.90;;
61572;SDS011;47465;43.094;12.434;2023-07-20T08:15:39;26.45;;;9.40;;
61572;SDS011;47465;43.094;12.434;2023-07-20T08:18:11;21.42;;;8.18;;
61572;SDS011;47465;43.094;12.434;2023-07-20T08:20:37;22.52;;;8.73;;
61572;SDS011;47465;43.094;12.434;2023-07-20T08:23:04;24.58;;;8.90;;
61572;SDS011;47465;43.094;12.434;2023-07-20T08:25:30;20.67;;;7.93;;
61572;SDS011;47465;43.094;12.434;2023-07-20T08:27:56;22.23;;;8.50;;
61572;SDS011;47465;43.094;12.434;2023-07-20T08:30:22;24.45;;;8.45;;
61572;SDS011;47465;43.094;12.434;2023-07-20T08:32:49;22.25;;;8.15;;
61572;SDS011;47465;43.094;12.434;2023-07-20T08:35:15;25.38;;;7.70;;
61572;SDS011;47465;43.094;12.434;2023-07-20T08:37:41;26.75;;;8.75;;
61572;SDS011;47465;43.094;12.434;2023-07-20T08:40:09;22.15;;;8.45;;
61572;SDS011;47465;43.094;12.434;2023-07-20T08:42:37;24.67;;;8.80;;
61572;SDS011;47465;43.094;12.434;2023-07-20T08:45:05;17.63;;;8.77;;
61572;SDS011;47465;43.094;12.434;2023-07-20T08:47:34;25.95;;;8.07;;
61572;SDS011;47465;43.094;12.434;2023-07-20T08:50:02;33.33;;;8.60;;
61572;SDS011;47465;43.094;12.434;2023-07-20T08:52:32;22.65;;;8.13;;
61572;SDS011;47465;43.094;12.434;2023-07-20T08:54:59;22.27;;;8.68;;
61572;SDS011;47465;43.094;12.434;2023-07-20T08:57:30;23.88;;;8.60;;
61572;SDS011;47465;43.094;12.434;2023-07-20T08:59:58;18.98;;;7.65;;
61572;SDS011;47465;43.094;12.434;2023-07-20T09:02:29;21.90;;;8.38;;
61572;SDS011;47465;43.094;12.434;2023-07-20T09:05:01;22.00;;;8.70;;
61572;SDS011;47465;43.094;12.434;2023-07-20T09:07:26;19.85;;;8.02;;
61572;SDS011;47465;43.094;12.434;2023-07-20T09:09:53;20.02;;;7.93;;
61572;SDS011;47465;43.094;12.434;2023-07-20T09:12:22;25.42;;;8.48;;
61572;SDS011;47465;43.094;12.434;2023-07-20T09:14:49;18.45;;;7.18;;
61572;SDS011;47465;43.094;12.434;2023-07-20T09:17:15;23.50;;;8.63;;
61572;SDS011;47465;43.094;12.434;2023-07-20T09:19:45;23.15;;;8.52;;
61572;SDS011;47465;43.094;12.434;2023-07-20T09:22:12;23.17;;;8.18;;
61572;SDS011;47465;43.094;12.434;2023-07-20T09:24:38;30.15;;;8.30;;
61572;SDS011;47465;43.094;12.434;2023-07-20T09:29:32;24.25;;;8.82;;
61572;SDS011;47465;43.094;12.434;2023-07-20T09:32:00;23.70;;;8.43;;
61572;SDS011;47465;43.094;12.434;2023-07-20T09:34:28;21.75;;;8.45;;
61572;SDS011;47465;43.094;12.434;2023-07-20T09:36:55;23.45;;;8.57;;
61572;SDS011;47465;43.094;12.434;2023-07-20T09:39:21;23.70;;;8.80;;
61572;SDS011;47465;43.094;12.434;2023-07-20T09:41:47;28.05;;;8.40;;
61572;SDS011;47465;43.094;12.434;2023-07-20T09:44:14;21.95;;;8.73;;
61572;SDS011;47465;43.094;12.434;2023-07-20T09:46:44;24.50;;;8.57;;
61572;SDS011;47465;43.094;12.434;2023-07-20T09:49:12;19.15;;;8.02;;
61572;SDS011;47465;43.094;12.434;2023-07-20T09:51:38;19.02;;;8.13;;
61572;SDS011;47465;43.094;12.434;2023-07-20T09:54:04;19.27;;;8.80;;
61572;SDS011;47465;43.094;12.434;2023-07-20T09:56:31;20.17;;;7.72;;
61572;SDS011;47465;43.094;12.434;2023-07-20T09:58:58;26.57;;;8.97;;
61572;SDS011;47465;43.094;12.434;2023-07-20T10:01:24;21.17;;;8.35;;
61572;SDS011;47465;43.094;12.434;2023-07-20T10:03:53;18.60;;;8.52;;
61572;SDS011;47465;43.094;12.434;2023-07-20T10:06:24;20.15;;;8.82;;
61572;SDS011;47465;43.094;12.434;2023-07-20T10:08:52;16.00;;;7.80;;
61572;SDS011;47465;43.094;12.434;2023-07-20T10:11:21;17.98;;;7.68;;
61572;SDS011;47465;43.094;12.434;2023-07-20T10:13:51;16.13;;;7.60;;
61572;SDS011;47465;43.094;12.434;2023-07-20T10:16:22;16.88;;;7.85;;
61572;SDS011;47465;43.094;12.434;2023-07-20T10:18:53;15.68;;;7.63;;
61572;SDS011;47465;43.094;12.434;2023-07-20T10:21:28;16.80;;;8.15;;
61572;SDS011;47465;43.094;12.434;2023-07-20T10:23:55;21.90;;;9.25;;
61572;SDS011;47465;43.094;12.434;2023-07-20T10:26:23;22.92;;;8.55;;
61572;SDS011;47465;43.094;12.434;2023-07-20T10:28:49;21.90;;;8.02;;
61572;SDS011;47465;43.094;12.434;2023-07-20T10:31:15;17.35;;;7.95;;
61572;SDS011;47465;43.094;12.434;2023-07-20T10:33:43;18.52;;;7.88;;
61572;SDS011;47465;43.094;12.434;2023-07-20T10:36:12;21.85;;;8.48;;
61572;SDS011;47465;43.094;12.434;2023-07-20T10:38:40;23.33;;;7.97;;
61572;SDS011;47465;43.094;12.434;2023-07-20T10:41:15;17.98;;;7.30;;
61572;SDS011;47465;43.094;12.434;2023-07-20T10:43:43;23.20;;;8.68;;
61572;SDS011;47465;43.094;12.434;2023-07-20T10:46:12;19.90;;;7.93;;
61572;SDS011;47465;43.094;12.434;2023-07-20T10:51:26;16.90;;;7.45;;
61572;SDS011;47465;43.094;12.434;2023-07-20T10:53:54;19.50;;;7.40;;
61572;SDS011;47465;43.094;12.434;2023-07-20T10:56:22;22.17;;;8.43;;
61572;SDS011;47465;43.094;12.434;2023-07-20T10:58:51;18.58;;;7.80;;
61572;SDS011;47465;43.094;12.434;2023-07-20T11:01:27;17.27;;;6.97;;
61572;SDS011;47465;43.094;12.434;2023-07-20T11:03:56;16.75;;;6.63;;
61572;SDS011;47465;43.094;12.434;2023-07-20T11:06:33;17.40;;;7.10;;
61572;SDS011;47465;43.094;12.434;2023-07-20T11:09:05;18.90;;;7.38;;
61572;SDS011;47465;43.094;12.434;2023-07-20T11:11:33;16.95;;;6.53;;
61572;SDS011;47465;43.094;12.434;2023-07-20T11:14:01;19.67;;;7.50;;
61572;SDS011;47465;43.094;12.434;2023-07-20T11:16:33;16.37;;;7.07;;
61572;SDS011;47465;43.094;12.434;2023-07-20T11:19:00;18.45;;;7.53;;
61572;SDS011;47465;43.094;12.434;2023-07-20T11:21:26;21.23;;;7.07;;
61572;SDS011;47465;43.094;12.434;2023-07-20T11:23:52;14.43;;;7.30;;
61572;SDS011;47465;43.094;12.434;2023-07-20T11:26:20;16.90;;;6.55;;
61572;SDS011;47465;43.094;12.434;2023-07-20T11:28:48;15.77;;;7.20;;
61572;SDS011;47465;43.094;12.434;2023-07-20T11:31:14;16.60;;;7.43;;
61572;SDS011;47465;43.094;12.434;2023-07-20T11:33:41;16.17;;;6.53;;
61572;SDS011;47465;43.094;12.434;2023-07-20T11:36:08;16.00;;;6.40;;
61572;SDS011;47465;43.094;12.434;2023-07-20T11:38:34;18.83;;;6.65;;
61572;SDS011;47465;43.094;12.434;2023-07-20T11:41:00;13.93;;;6.35;;
61572;SDS011;47465;43.094;12.434;2023-07-20T11:43:29;14.80;;;7.07;;
61572;SDS011;47465;43.094;12.434;2023-07-20T11:45:55;16.08;;;7.82;;
61572;SDS011;47465;43.094;12.434;2023-07-20T11:48:21;17.25;;;7.40;;
61572;SDS011;47465;43.094;12.434;2023-07-20T11:50:47;19.90;;;7.40;;
61572;SDS011;47465;43.094;12.434;2023-07-20T11:53:14;18.35;;;6.97;;
61572;SDS011;47465;43.094;12.434;2023-07-20T11:55:41;17.73;;;7.20;;
61572;SDS011;47465;43.094;12.434;2023-07-20T11:58:07;18.10;;;7.30;;
61572;SDS011;47465;43.094;12.434;2023-07-20T12:00:37;12.63;;;7.15;;
61572;SDS011;47465;43.094;12.434;2023-07-20T12:03:06;20.95;;;7.45;;
61572;SDS011;47465;43.094;12.434;2023-07-20T12:05:32;19.00;;;7.05;;
61572;SDS011;47465;43.094;12.434;2023-07-20T12:07:58;17.80;;;7.28;;
61572;SDS011;47465;43.094;12.434;2023-07-20T12:10:25;16.80;;;7.28;;
61572;SDS011;47465;43.094;12.434;2023-07-20T12:12:52;19.13;;;8.48;;
61572;SDS011;47465;43.094;12.434;2023-07-20T12:15:20;14.63;;;7.55;;
61572;SDS011;47465;43.094;12.434;2023-07-20T12:17:53;13.82;;;7.40;;
61572;SDS011;47465;43.094;12.434;2023-07-20T12:20:28;15.90;;;7.57;;
61572;SDS011;47465;43.094;12.434;2023-07-20T12:22:56;18.38;;;7.20;;
61572;SDS011;47465;43.094;12.434;2023-07-20T12:25:23;18.15;;;7.25;;
61572;SDS011;47465;43.094;12.434;2023-07-20T12:27:59;17.73;;;7.18;;
61572;SDS011;47465;43.094;12.434;2023-07-20T12:30:27;16.15;;;6.90;;
61572;SDS011;47465;43.094;12.434;2023-07-20T12:32:55;16.10;;;7.40;;
61572;SDS011;47465;43.094;12.434;2023-07-20T12:35:20;19.50;;;7.53;;
61572;SDS011;47465;43.094;12.434;2023-07-20T12:37:46;18.58;;;7.28;;
61572;SDS011;47465;43.094;12.434;2023-07-20T12:42:40;17.80;;;7.07;;
61572;SDS011;47465;43.094;12.434;2023-07-20T12:45:06;23.02;;;7.40;;
61572;SDS011;47465;43.094;12.434;2023-07-20T12:47:33;15.97;;;7.30;;
61572;SDS011;47465;43.094;12.434;2023-07-20T12:50:00;14.00;;;6.82;;
61572;SDS011;47465;43.094;12.434;2023-07-20T12:52:26;15.63;;;7.25;;
61572;SDS011;47465;43.094;12.434;2023-07-20T12:54:52;20.08;;;7.53;;
61572;SDS011;47465;43.094;12.434;2023-07-20T12:57:18;16.27;;;7.15;;
61572;SDS011;47465;43.094;12.434;2023-07-20T12:59:44;23.83;;;7.53;;
61572;SDS011;47465;43.094;12.434;2023-07-20T13:02:10;16.83;;;7.32;;
61572;SDS011;47465;43.094;12.434;2023-07-20T13:04:35;12.40;;;6.93;;
61572;SDS011;47465;43.094;12.434;2023-07-20T13:07:03;13.57;;;7.18;;
61572;SDS011;47465;43.094;12.434;2023-07-20T13:09:29;15.18;;;7.15;;
61572;SDS011;47465;43.094;12.434;2023-07-20T13:11:55;17.02;;;6.80;;
61572;SDS011;47465;43.094;12.434;2023-07-20T13:14:22;13.20;;;6.63;;
61572;SDS011;47465;43.094;12.434;2023-07-20T13:16:48;18.05;;;7.35;;
61572;SDS011;47465;43.094;12.434;2023-07-20T13:19:14;15.40;;;7.63;;
61572;SDS011;47465;43.094;12.434;2023-07-20T13:21:40;14.75;;;6.95;;
61572;SDS011;47465;43.094;12.434;2023-07-20T13:24:08;14.75;;;7.00;;
61572;SDS011;47465;43.094;12.434;2023-07-20T13:26:33;14.70;;;6.95;;
61572;SDS011;47465;43.094;12.434;2023-07-20T13:28:59;14.63;;;7.45;;
61572;SDS011;47465;43.094;12.434;2023-07-20T13:31:25;18.33;;;6.82;;
61572;SDS011;47465;43.094;12.434;2023-07-20T13:33:51;16.35;;;7.13;;
61572;SDS011;47465;43.094;12.434;2023-07-20T13:36:18;16.33;;;7.43;;
61572;SDS011;47465;43.094;12.434;2023-07-20T13:38:46;23.25;;;7.68;;
61572;SDS011;47465;43.094;12.434;2023-07-20T13:41:13;19.95;;;7.60;;
61572;SDS011;47465;43.094;12.434;2023-07-20T13:43:40;16.00;;;7.00;;
61572;SDS011;47465;43.094;12.434;2023-07-20T13:46:06;18.75;;;7.28;;
61572;SDS011;47465;43.094;12.434;2023-07-20T13:48:32;18.52;;;7.40;;
61572;SDS011;47465;43.094;12.434;2023-07-20T13:50:58;16.20;;;6.95;;
61572;SDS011;47465;43.094;12.434;2023-07-20T13:53:24;13.77;;;6.28;;
61572;SDS011;47465;43.094;12.434;2023-07-20T13:55:50;16.23;;;7.30;;
61572;SDS011;47465;43.094;12.434;2023-07-20T13:58:19;13.57;;;6.90;;
61572;SDS011;47465;43.094;12.434;2023-07-20T14:00:45;17.20;;;7.50;;
61572;SDS011;47465;43.094;12.434;2023-07-20T14:03:12;16.83;;;6.90;;
61572;SDS011;47465;43.094;12.434;2023-07-20T14:05:38;15.70;;;6.72;;
61572;SDS011;47465;43.094;12.434;2023-07-20T14:08:04;16.75;;;6.85;;
61572;SDS011;47465;43.094;12.434;2023-07-20T14:10:30;16.33;;;6.95;;
61572;SDS011;47465;43.094;12.434;2023-07-20T14:12:56;14.23;;;7.20;;
61572;SDS011;47465;43.094;12.434;2023-07-20T14:15:49;15.95;;;6.47;;
61572;SDS011;47465;43.094;12.434;2023-07-20T14:18:15;14.82;;;6.65;;
61572;SDS011;47465;43.094;12.434;2023-07-20T14:20:41;13.73;;;6.88;;
61572;SDS011;47465;43.094;12.434;2023-07-20T14:23:09;16.92;;;6.85;;
61572;SDS011;47465;43.094;12.434;2023-07-20T14:25:35;13.07;;;6.68;;
61572;SDS011;47465;43.094;12.434;2023-07-20T14:28:01;14.98;;;6.80;;
61572;SDS011;47465;43.094;12.434;2023-07-20T14:30:27;14.65;;;7.18;;